Kezdőlap
METAR-TAF:

METAR-TAF

Repülőterek :

Monarch Pass

Salida, Colorado, Amerikai Egyesült Államok

földrajzi szélesség: 38-29-04N, földrajzi hosszúság: 106-19-01W, magasság: 3667 m

Jelenlegi meteorológiai megfigyelések

A jelentés 27 perccel ezelõtt készült, 07:15 UTC
Nyugat-északnyugati szél 20 kt
Hőmérséklet 9°C
Páratartalom 57%
Légköri nyomás 1041 hPa
Látótávolság: 16.1 km
Derült ég

METAR: KMYP 240715Z AUTO 29020KT 10SM CLR 09/01 A3075 RMK AO2

Idő: 01:42 (07:42 UTC)


TAF: hiányzik

Meteorológiai megfigyelések és előrejelzések több, mint 4000 repülőtéren (METAR és TAF jelentéseket).

A térképen piros és sárga pontok jelzik az elérhető meteorológiai állomásokat.

Mozgassa az egeret a pont fölött, hogy megjelenjen az állomás neve.

Azután kattintson az időjárási megfigyelések és előrejelzések megtekintéséhez.

A térkép megváltoztatása: kattintson a fekete keresztel jelölt zöld gombra ráközelítéshez, a vonallal jelölt zöld gombra távolításhoz, vagy a zöld nyilakra a szomszédos térképek eléréséhez.


METAR-TAF: